sensor_id;sensor_type;location;lat;lon;timestamp;temperature;humidity
73576;DHT22;61859;49.204;8.140;2022-09-21T00:01:20;8.90;95.10
73576;DHT22;61859;49.204;8.140;2022-09-21T00:03:46;8.90;95.10
73576;DHT22;61859;49.204;8.140;2022-09-21T00:06:17;8.80;95.20
73576;DHT22;61859;49.204;8.140;2022-09-21T00:08:44;8.80;95.10
73576;DHT22;61859;49.204;8.140;2022-09-21T00:11:26;8.80;95.20
73576;DHT22;61859;49.204;8.140;2022-09-21T00:13:54;8.80;95.30
73576;DHT22;61859;49.204;8.140;2022-09-21T00:16:20;8.70;95.30
73576;DHT22;61859;49.204;8.140;2022-09-21T00:18:46;8.70;95.40
73576;DHT22;61859;49.204;8.140;2022-09-21T00:21:14;8.60;95.30
73576;DHT22;61859;49.204;8.140;2022-09-21T00:23:40;8.60;95.30
73576;DHT22;61859;49.204;8.140;2022-09-21T00:26:14;8.70;95.40
73576;DHT22;61859;49.204;8.140;2022-09-21T00:28:40;8.50;95.50
73576;DHT22;61859;49.204;8.140;2022-09-21T00:31:08;8.40;95.50
73576;DHT22;61859;49.204;8.140;2022-09-21T00:33:37;8.50;95.50
73576;DHT22;61859;49.204;8.140;2022-09-21T00:36:04;8.50;95.50
73576;DHT22;61859;49.204;8.140;2022-09-21T00:38:31;8.40;95.50
73576;DHT22;61859;49.204;8.140;2022-09-21T00:40:56;8.40;95.60
73576;DHT22;61859;49.204;8.140;2022-09-21T00:43:22;8.50;95.50
73576;DHT22;61859;49.204;8.140;2022-09-21T00:45:49;8.30;95.60
73576;DHT22;61859;49.204;8.140;2022-09-21T00:48:15;8.40;95.60
73576;DHT22;61859;49.204;8.140;2022-09-21T00:50:47;8.40;95.60
73576;DHT22;61859;49.204;8.140;2022-09-21T00:53:13;8.30;95.70
73576;DHT22;61859;49.204;8.140;2022-09-21T00:55:43;8.40;95.50
73576;DHT22;61859;49.204;8.140;2022-09-21T00:58:13;8.30;95.60
73576;DHT22;61859;49.204;8.140;2022-09-21T01:00:40;8.20;95.50
73576;DHT22;61859;49.204;8.140;2022-09-21T01:03:07;8.20;95.60
73576;DHT22;61859;49.204;8.140;2022-09-21T01:05:33;8.10;95.60
73576;DHT22;61859;49.204;8.140;2022-09-21T01:08:01;8.10;95.70
73576;DHT22;61859;49.204;8.140;2022-09-21T01:10:32;8.10;95.60
73576;DHT22;61859;49.204;8.140;2022-09-21T01:13:27;8.10;95.80
73576;DHT22;61859;49.204;8.140;2022-09-21T01:18:29;8.10;95.70
73576;DHT22;61859;49.204;8.140;2022-09-21T01:24:02;8.00;95.60
73576;DHT22;61859;49.204;8.140;2022-09-21T01:29:30;7.80;96.00
73576;DHT22;61859;49.204;8.140;2022-09-21T01:32:13;7.80;96.00
73576;DHT22;61859;49.204;8.140;2022-09-21T01:34:49;7.80;96.00
73576;DHT22;61859;49.204;8.140;2022-09-21T01:37:24;7.80;96.00
73576;DHT22;61859;49.204;8.140;2022-09-21T01:40:09;7.70;96.20
73576;DHT22;61859;49.204;8.140;2022-09-21T01:42:38;7.70;96.00
73576;DHT22;61859;49.204;8.140;2022-09-21T01:45:06;7.70;96.10
73576;DHT22;61859;49.204;8.140;2022-09-21T01:47:36;7.70;96.30
73576;DHT22;61859;49.204;8.140;2022-09-21T01:50:07;7.70;96.10
73576;DHT22;61859;49.204;8.140;2022-09-21T01:52:56;7.60;96.20
73576;DHT22;61859;49.204;8.140;2022-09-21T01:55:26;7.60;96.10
73576;DHT22;61859;49.204;8.140;2022-09-21T01:58:14;7.40;96.10
73576;DHT22;61859;49.204;8.140;2022-09-21T02:00:43;7.50;96.30
73576;DHT22;61859;49.204;8.140;2022-09-21T02:03:27;7.60;96.30
73576;DHT22;61859;49.204;8.140;2022-09-21T02:05:55;7.40;96.30
73576;DHT22;61859;49.204;8.140;2022-09-21T02:08:22;7.40;96.40
73576;DHT22;61859;49.204;8.140;2022-09-21T02:10:52;7.50;96.30
73576;DHT22;61859;49.204;8.140;2022-09-21T02:13:19;7.40;96.40
73576;DHT22;61859;49.204;8.140;2022-09-21T02:29:46;7.20;96.50
73576;DHT22;61859;49.204;8.140;2022-09-21T02:32:26;7.20;96.60
73576;DHT22;61859;49.204;8.140;2022-09-21T02:35:11;7.20;96.60
73576;DHT22;61859;49.204;8.140;2022-09-21T02:37:50;7.10;96.80
73576;DHT22;61859;49.204;8.140;2022-09-21T02:40:38;7.20;96.60
73576;DHT22;61859;49.204;8.140;2022-09-21T02:43:14;7.10;96.60
73576;DHT22;61859;49.204;8.140;2022-09-21T02:45:58;7.10;96.50
73576;DHT22;61859;49.204;8.140;2022-09-21T02:48:31;7.10;96.70
73576;DHT22;61859;49.204;8.140;2022-09-21T02:51:02;7.10;96.40
73576;DHT22;61859;49.204;8.140;2022-09-21T02:53:30;7.10;96.40
73576;DHT22;61859;49.204;8.140;2022-09-21T02:56:00;7.00;96.70
73576;DHT22;61859;49.204;8.140;2022-09-21T02:58:33;6.90;96.60
73576;DHT22;61859;49.204;8.140;2022-09-21T03:01:00;6.90;96.80
73576;DHT22;61859;49.204;8.140;2022-09-21T03:03:26;6.80;96.80
73576;DHT22;61859;49.204;8.140;2022-09-21T03:05:53;7.00;96.80
73576;DHT22;61859;49.204;8.140;2022-09-21T03:08:20;6.90;96.70
73576;DHT22;61859;49.204;8.140;2022-09-21T03:10:46;6.80;97.00
73576;DHT22;61859;49.204;8.140;2022-09-21T03:13:15;6.70;97.00
73576;DHT22;61859;49.204;8.140;2022-09-21T03:15:40;6.90;97.10
73576;DHT22;61859;49.204;8.140;2022-09-21T03:18:07;6.70;97.10
73576;DHT22;61859;49.204;8.140;2022-09-21T03:20:35;6.80;97.10
73576;DHT22;61859;49.204;8.140;2022-09-21T03:23:01;6.80;97.20
73576;DHT22;61859;49.204;8.140;2022-09-21T03:25:28;6.80;97.10
73576;DHT22;61859;49.204;8.140;2022-09-21T03:27:54;6.60;97.30
73576;DHT22;61859;49.204;8.140;2022-09-21T03:30:20;6.70;97.30
73576;DHT22;61859;49.204;8.140;2022-09-21T03:32:50;6.60;97.30
73576;DHT22;61859;49.204;8.140;2022-09-21T03:35:17;6.70;97.30
73576;DHT22;61859;49.204;8.140;2022-09-21T03:37:44;6.60;97.20
73576;DHT22;61859;49.204;8.140;2022-09-21T03:40:11;6.70;97.30
73576;DHT22;61859;49.204;8.140;2022-09-21T03:42:37;6.60;97.30
73576;DHT22;61859;49.204;8.140;2022-09-21T03:45:04;6.80;97.30
73576;DHT22;61859;49.204;8.140;2022-09-21T03:47:30;6.70;97.10
73576;DHT22;61859;49.204;8.140;2022-09-21T03:49:55;6.50;97.10
73576;DHT22;61859;49.204;8.140;2022-09-21T03:52:21;6.60;97.30
73576;DHT22;61859;49.204;8.140;2022-09-21T03:54:47;6.60;97.20
73576;DHT22;61859;49.204;8.140;2022-09-21T03:57:12;6.60;97.10
73576;DHT22;61859;49.204;8.140;2022-09-21T03:59:38;6.50;97.30
73576;DHT22;61859;49.204;8.140;2022-09-21T04:02:03;6.60;97.30
73576;DHT22;61859;49.204;8.140;2022-09-21T04:04:29;6.50;97.20
73576;DHT22;61859;49.204;8.140;2022-09-21T04:06:54;6.40;97.20
73576;DHT22;61859;49.204;8.140;2022-09-21T04:09:20;6.50;97.10
73576;DHT22;61859;49.204;8.140;2022-09-21T04:11:46;6.40;97.30
73576;DHT22;61859;49.204;8.140;2022-09-21T04:14:12;6.40;97.20
73576;DHT22;61859;49.204;8.140;2022-09-21T04:16:38;6.40;97.30
73576;DHT22;61859;49.204;8.140;2022-09-21T04:19:03;6.30;97.30
73576;DHT22;61859;49.204;8.140;2022-09-21T04:21:29;6.40;97.20
73576;DHT22;61859;49.204;8.140;2022-09-21T04:23:55;6.20;97.30
73576;DHT22;61859;49.204;8.140;2022-09-21T04:26:28;6.30;97.60
73576;DHT22;61859;49.204;8.140;2022-09-21T04:28:56;6.20;97.50
73576;DHT22;61859;49.204;8.140;2022-09-21T04:31:23;6.40;97.40
73576;DHT22;61859;49.204;8.140;2022-09-21T04:33:49;6.20;97.50
73576;DHT22;61859;49.204;8.140;2022-09-21T04:36:16;6.20;97.60
73576;DHT22;61859;49.204;8.140;2022-09-21T04:38:42;6.30;97.60
73576;DHT22;61859;49.204;8.140;2022-09-21T04:41:08;6.30;97.60
73576;DHT22;61859;49.204;8.140;2022-09-21T04:43:33;6.30;97.50
73576;DHT22;61859;49.204;8.140;2022-09-21T04:46:04;6.30;97.30
73576;DHT22;61859;49.204;8.140;2022-09-21T04:48:30;6.20;97.40
73576;DHT22;61859;49.204;8.140;2022-09-21T04:50:56;6.30;97.40
73576;DHT22;61859;49.204;8.140;2022-09-21T04:53:21;6.20;97.50
73576;DHT22;61859;49.204;8.140;2022-09-21T04:55:47;6.10;97.40
73576;DHT22;61859;49.204;8.140;2022-09-21T04:58:12;6.10;97.60
73576;DHT22;61859;49.204;8.140;2022-09-21T05:00:38;6.10;97.70
73576;DHT22;61859;49.204;8.140;2022-09-21T05:03:03;6.10;97.70
73576;DHT22;61859;49.204;8.140;2022-09-21T05:05:29;6.10;97.60
73576;DHT22;61859;49.204;8.140;2022-09-21T05:07:56;6.00;97.70
73576;DHT22;61859;49.204;8.140;2022-09-21T05:10:21;6.10;97.70
73576;DHT22;61859;49.204;8.140;2022-09-21T05:12:47;5.90;97.60
73576;DHT22;61859;49.204;8.140;2022-09-21T05:15:12;5.90;97.70
73576;DHT22;61859;49.204;8.140;2022-09-21T05:17:39;5.90;97.80
73576;DHT22;61859;49.204;8.140;2022-09-21T05:20:05;6.10;97.90
73576;DHT22;61859;49.204;8.140;2022-09-21T05:22:31;5.90;97.80
73576;DHT22;61859;49.204;8.140;2022-09-21T05:24:57;6.00;97.80
73576;DHT22;61859;49.204;8.140;2022-09-21T05:27:22;6.00;97.80
73576;DHT22;61859;49.204;8.140;2022-09-21T05:29:48;6.10;97.90
73576;DHT22;61859;49.204;8.140;2022-09-21T05:32:36;6.10;97.90
73576;DHT22;61859;49.204;8.140;2022-09-21T05:38:24;6.10;98.00
73576;DHT22;61859;49.204;8.140;2022-09-21T05:40:50;6.20;97.90
73576;DHT22;61859;49.204;8.140;2022-09-21T05:43:17;6.10;98.10
73576;DHT22;61859;49.204;8.140;2022-09-21T05:45:59;5.90;98.00
73576;DHT22;61859;49.204;8.140;2022-09-21T05:48:40;6.20;98.10
73576;DHT22;61859;49.204;8.140;2022-09-21T05:51:32;6.30;98.10
73576;DHT22;61859;49.204;8.140;2022-09-21T06:05:43;6.80;98.20
73576;DHT22;61859;49.204;8.140;2022-09-21T06:08:08;7.00;98.20
73576;DHT22;61859;49.204;8.140;2022-09-21T06:10:34;7.20;98.00
73576;DHT22;61859;49.204;8.140;2022-09-21T06:13:00;7.20;98.20
73576;DHT22;61859;49.204;8.140;2022-09-21T06:15:26;7.30;98.20
73576;DHT22;61859;49.204;8.140;2022-09-21T06:17:51;7.60;98.20
73576;DHT22;61859;49.204;8.140;2022-09-21T06:20:17;7.60;98.20
73576;DHT22;61859;49.204;8.140;2022-09-21T06:22:43;8.00;98.10
73576;DHT22;61859;49.204;8.140;2022-09-21T06:25:08;8.10;98.00
73576;DHT22;61859;49.204;8.140;2022-09-21T06:27:34;8.30;98.00
73576;DHT22;61859;49.204;8.140;2022-09-21T06:29:59;8.50;97.80
73576;DHT22;61859;49.204;8.140;2022-09-21T06:32:25;8.60;97.60
73576;DHT22;61859;49.204;8.140;2022-09-21T06:34:51;8.90;97.40
73576;DHT22;61859;49.204;8.140;2022-09-21T06:37:16;9.00;97.00
73576;DHT22;61859;49.204;8.140;2022-09-21T06:39:42;9.20;96.80
73576;DHT22;61859;49.204;8.140;2022-09-21T06:42:07;9.40;96.40
73576;DHT22;61859;49.204;8.140;2022-09-21T06:44:33;9.60;95.90
73576;DHT22;61859;49.204;8.140;2022-09-21T06:46:58;9.70;95.60
73576;DHT22;61859;49.204;8.140;2022-09-21T06:49:24;10.10;94.90
73576;DHT22;61859;49.204;8.140;2022-09-21T06:51:53;10.30;94.70
73576;DHT22;61859;49.204;8.140;2022-09-21T06:54:18;10.40;93.90
73576;DHT22;61859;49.204;8.140;2022-09-21T06:56:44;10.60;93.40
73576;DHT22;61859;49.204;8.140;2022-09-21T06:59:10;10.80;92.80
73576;DHT22;61859;49.204;8.140;2022-09-21T07:01:35;10.90;92.30
73576;DHT22;61859;49.204;8.140;2022-09-21T07:04:01;11.10;92.10
73576;DHT22;61859;49.204;8.140;2022-09-21T07:06:26;11.30;91.60
73576;DHT22;61859;49.204;8.140;2022-09-21T07:08:53;11.70;91.10
73576;DHT22;61859;49.204;8.140;2022-09-21T07:11:19;12.00;90.40
73576;DHT22;61859;49.204;8.140;2022-09-21T07:13:46;12.10;90.10
73576;DHT22;61859;49.204;8.140;2022-09-21T07:16:11;12.30;88.90
73576;DHT22;61859;49.204;8.140;2022-09-21T07:18:39;12.60;88.30
73576;DHT22;61859;49.204;8.140;2022-09-21T07:21:06;12.50;87.90
73576;DHT22;61859;49.204;8.140;2022-09-21T07:23:32;12.70;87.30
73576;DHT22;61859;49.204;8.140;2022-09-21T07:26:04;12.80;86.90
73576;DHT22;61859;49.204;8.140;2022-09-21T07:28:30;13.00;86.60
73576;DHT22;61859;49.204;8.140;2022-09-21T07:30:57;13.20;86.00
73576;DHT22;61859;49.204;8.140;2022-09-21T07:33:24;13.30;85.50
73576;DHT22;61859;49.204;8.140;2022-09-21T07:35:51;13.50;84.90
73576;DHT22;61859;49.204;8.140;2022-09-21T07:38:16;13.60;84.30
73576;DHT22;61859;49.204;8.140;2022-09-21T07:40:42;13.70;84.10
73576;DHT22;61859;49.204;8.140;2022-09-21T07:43:07;13.80;83.60
73576;DHT22;61859;49.204;8.140;2022-09-21T07:45:33;13.80;83.60
73576;DHT22;61859;49.204;8.140;2022-09-21T07:48:03;14.00;83.40
73576;DHT22;61859;49.204;8.140;2022-09-21T07:50:28;14.20;82.90
73576;DHT22;61859;49.204;8.140;2022-09-21T07:52:54;14.30;82.20
73576;DHT22;61859;49.204;8.140;2022-09-21T07:55:19;14.50;81.70
73576;DHT22;61859;49.204;8.140;2022-09-21T07:57:45;14.70;81.50
73576;DHT22;61859;49.204;8.140;2022-09-21T08:00:32;14.80;81.00
73576;DHT22;61859;49.204;8.140;2022-09-21T08:02:59;15.00;79.50
73576;DHT22;61859;49.204;8.140;2022-09-21T08:05:25;15.20;78.70
73576;DHT22;61859;49.204;8.140;2022-09-21T08:07:54;15.20;78.60
73576;DHT22;61859;49.204;8.140;2022-09-21T08:10:21;15.30;78.40
73576;DHT22;61859;49.204;8.140;2022-09-21T08:12:47;15.40;77.40
73576;DHT22;61859;49.204;8.140;2022-09-21T08:15:12;15.40;76.40
73576;DHT22;61859;49.204;8.140;2022-09-21T08:17:39;15.50;77.00
73576;DHT22;61859;49.204;8.140;2022-09-21T08:20:04;15.70;77.30
73576;DHT22;61859;49.204;8.140;2022-09-21T08:22:30;15.80;77.60
73576;DHT22;61859;49.204;8.140;2022-09-21T08:24:56;16.10;75.10
73576;DHT22;61859;49.204;8.140;2022-09-21T08:27:22;16.00;74.30
73576;DHT22;61859;49.204;8.140;2022-09-21T08:29:50;16.10;73.80
73576;DHT22;61859;49.204;8.140;2022-09-21T08:32:16;16.00;74.10
73576;DHT22;61859;49.204;8.140;2022-09-21T08:34:41;16.00;74.60
73576;DHT22;61859;49.204;8.140;2022-09-21T08:37:07;16.20;74.10
73576;DHT22;61859;49.204;8.140;2022-09-21T08:39:32;16.20;74.10
73576;DHT22;61859;49.204;8.140;2022-09-21T08:44:33;16.40;72.90
73576;DHT22;61859;49.204;8.140;2022-09-21T08:49:50;16.80;71.80
73576;DHT22;61859;49.204;8.140;2022-09-21T08:52:18;16.90;71.30
73576;DHT22;61859;49.204;8.140;2022-09-21T08:57:16;17.00;69.10
73576;DHT22;61859;49.204;8.140;2022-09-21T08:59:47;17.10;68.30
73576;DHT22;61859;49.204;8.140;2022-09-21T09:05:44;17.10;67.50
73576;DHT22;61859;49.204;8.140;2022-09-21T09:16:31;17.40;67.60
73576;DHT22;61859;49.204;8.140;2022-09-21T09:21:44;17.60;66.00
73576;DHT22;61859;49.204;8.140;2022-09-21T09:26:57;17.90;65.80
73576;DHT22;61859;49.204;8.140;2022-09-21T09:29:48;17.90;64.90
73576;DHT22;61859;49.204;8.140;2022-09-21T09:32:17;18.20;64.50
73576;DHT22;61859;49.204;8.140;2022-09-21T09:34:50;18.40;64.10
73576;DHT22;61859;49.204;8.140;2022-09-21T09:37:19;18.50;63.30
73576;DHT22;61859;49.204;8.140;2022-09-21T09:39:54;18.80;63.10
73576;DHT22;61859;49.204;8.140;2022-09-21T09:45:02;18.90;62.60
73576;DHT22;61859;49.204;8.140;2022-09-21T09:50:21;19.10;61.30
73576;DHT22;61859;49.204;8.140;2022-09-21T09:52:48;19.20;61.40
73576;DHT22;61859;49.204;8.140;2022-09-21T09:55:21;19.30;60.50
73576;DHT22;61859;49.204;8.140;2022-09-21T09:57:49;19.50;59.40
73576;DHT22;61859;49.204;8.140;2022-09-21T10:00:17;19.60;58.70
73576;DHT22;61859;49.204;8.140;2022-09-21T10:02:52;19.60;58.10
73576;DHT22;61859;49.204;8.140;2022-09-21T10:05:23;19.60;56.00
73576;DHT22;61859;49.204;8.140;2022-09-21T10:07:50;19.70;57.20
73576;DHT22;61859;49.204;8.140;2022-09-21T10:13:01;19.90;55.90
73576;DHT22;61859;49.204;8.140;2022-09-21T10:15:28;20.00;56.60
73576;DHT22;61859;49.204;8.140;2022-09-21T10:18:05;20.10;56.50
73576;DHT22;61859;49.204;8.140;2022-09-21T10:20:31;20.30;55.90
73576;DHT22;61859;49.204;8.140;2022-09-21T10:22:58;20.50;56.10
73576;DHT22;61859;49.204;8.140;2022-09-21T10:25:24;20.50;54.20
73576;DHT22;61859;49.204;8.140;2022-09-21T10:27:50;20.60;55.30
73576;DHT22;61859;49.204;8.140;2022-09-21T10:30:42;20.50;55.60
73576;DHT22;61859;49.204;8.140;2022-09-21T10:33:19;20.60;55.70
73576;DHT22;61859;49.204;8.140;2022-09-21T10:35:50;20.80;54.30
73576;DHT22;61859;49.204;8.140;2022-09-21T10:38:18;20.90;53.60
73576;DHT22;61859;49.204;8.140;2022-09-21T10:40:45;20.90;53.10
73576;DHT22;61859;49.204;8.140;2022-09-21T10:43:35;21.10;54.50
73576;DHT22;61859;49.204;8.140;2022-09-21T10:46:04;21.30;53.50
73576;DHT22;61859;49.204;8.140;2022-09-21T10:48:30;21.50;53.20
73576;DHT22;61859;49.204;8.140;2022-09-21T10:50:56;21.60;52.10
73576;DHT22;61859;49.204;8.140;2022-09-21T10:53:26;21.70;52.10
73576;DHT22;61859;49.204;8.140;2022-09-21T10:55:56;21.90;50.90
73576;DHT22;61859;49.204;8.140;2022-09-21T10:58:22;21.90;52.30
73576;DHT22;61859;49.204;8.140;2022-09-21T11:00:50;22.00;50.90
73576;DHT22;61859;49.204;8.140;2022-09-21T11:06:14;22.10;47.90
73576;DHT22;61859;49.204;8.140;2022-09-21T11:14:19;22.10;49.00
73576;DHT22;61859;49.204;8.140;2022-09-21T11:16:54;22.30;48.90
73576;DHT22;61859;49.204;8.140;2022-09-21T11:19:37;22.50;48.40
73576;DHT22;61859;49.204;8.140;2022-09-21T11:22:29;22.60;48.60
73576;DHT22;61859;49.204;8.140;2022-09-21T11:25:04;22.70;48.70
73576;DHT22;61859;49.204;8.140;2022-09-21T11:27:39;22.60;48.90
73576;DHT22;61859;49.204;8.140;2022-09-21T11:30:13;22.70;47.70
73576;DHT22;61859;49.204;8.140;2022-09-21T11:43:55;23.10;46.50
73576;DHT22;61859;49.204;8.140;2022-09-21T11:46:37;22.80;46.90
73576;DHT22;61859;49.204;8.140;2022-09-21T12:00:19;22.10;47.00
73576;DHT22;61859;49.204;8.140;2022-09-21T12:11:15;22.20;45.70
73576;DHT22;61859;49.204;8.140;2022-09-21T12:14:03;22.70;46.60
73576;DHT22;61859;49.204;8.140;2022-09-21T12:19:50;23.00;45.50
73576;DHT22;61859;49.204;8.140;2022-09-21T12:22:32;22.90;45.10
73576;DHT22;61859;49.204;8.140;2022-09-21T12:25:27;22.80;46.40
73576;DHT22;61859;49.204;8.140;2022-09-21T12:30:49;23.50;43.80
73576;DHT22;61859;49.204;8.140;2022-09-21T12:33:48;23.60;44.70
73576;DHT22;61859;49.204;8.140;2022-09-21T12:36:36;23.60;44.40
73576;DHT22;61859;49.204;8.140;2022-09-21T12:39:24;23.50;45.30
73576;DHT22;61859;49.204;8.140;2022-09-21T12:41:56;23.70;54.20
73576;DHT22;61859;49.204;8.140;2022-09-21T12:44:41;23.70;49.30
73576;DHT22;61859;49.204;8.140;2022-09-21T12:47:26;23.80;45.50
73576;DHT22;61859;49.204;8.140;2022-09-21T12:50:05;23.80;46.70
73576;DHT22;61859;49.204;8.140;2022-09-21T12:52:32;23.80;43.80
73576;DHT22;61859;49.204;8.140;2022-09-21T13:06:21;24.20;42.90
73576;DHT22;61859;49.204;8.140;2022-09-21T13:08:54;24.20;43.10
73576;DHT22;61859;49.204;8.140;2022-09-21T13:11:21;24.40;43.10
73576;DHT22;61859;49.204;8.140;2022-09-21T13:13:52;24.70;44.10
73576;DHT22;61859;49.204;8.140;2022-09-21T13:19:02;25.00;42.60
73576;DHT22;61859;49.204;8.140;2022-09-21T13:21:30;24.30;42.40
73576;DHT22;61859;49.204;8.140;2022-09-21T13:23:59;23.40;43.60
73576;DHT22;61859;49.204;8.140;2022-09-21T13:26:32;22.60;44.80
73576;DHT22;61859;49.204;8.140;2022-09-21T13:29:27;22.30;45.90
73576;DHT22;61859;49.204;8.140;2022-09-21T13:34:38;23.20;45.30
73576;DHT22;61859;49.204;8.140;2022-09-21T13:45:00;25.10;40.70
73576;DHT22;61859;49.204;8.140;2022-09-21T13:47:32;25.30;40.30
73576;DHT22;61859;49.204;8.140;2022-09-21T13:50:02;25.50;39.00
73576;DHT22;61859;49.204;8.140;2022-09-21T13:53:02;25.70;39.30
73576;DHT22;61859;49.204;8.140;2022-09-21T13:55:38;25.50;38.80
73576;DHT22;61859;49.204;8.140;2022-09-21T13:58:21;25.10;40.10
73576;DHT22;61859;49.204;8.140;2022-09-21T14:03:36;24.80;40.70
73576;DHT22;61859;49.204;8.140;2022-09-21T14:08:47;24.30;41.60
73576;DHT22;61859;49.204;8.140;2022-09-21T14:11:26;24.00;42.40
73576;DHT22;61859;49.204;8.140;2022-09-21T14:14:21;23.90;42.10
73576;DHT22;61859;49.204;8.140;2022-09-21T14:16:59;23.70;43.00
73576;DHT22;61859;49.204;8.140;2022-09-21T14:24:48;22.50;44.30
73576;DHT22;61859;49.204;8.140;2022-09-21T14:27:31;22.40;44.90
73576;DHT22;61859;49.204;8.140;2022-09-21T14:30:21;22.30;44.50
73576;DHT22;61859;49.204;8.140;2022-09-21T14:35:33;22.60;43.70
73576;DHT22;61859;49.204;8.140;2022-09-21T14:38:06;23.10;43.30
73576;DHT22;61859;49.204;8.140;2022-09-21T14:40:38;23.80;42.30
73576;DHT22;61859;49.204;8.140;2022-09-21T14:43:08;24.30;40.50
73576;DHT22;61859;49.204;8.140;2022-09-21T14:45:52;24.00;41.30
73576;DHT22;61859;49.204;8.140;2022-09-21T14:48:49;23.80;41.20
73576;DHT22;61859;49.204;8.140;2022-09-21T14:51:23;23.40;40.60
73576;DHT22;61859;49.204;8.140;2022-09-21T15:01:56;22.40;43.50
73576;DHT22;61859;49.204;8.140;2022-09-21T15:04:31;22.20;42.00
73576;DHT22;61859;49.204;8.140;2022-09-21T15:07:29;22.20;42.80
73576;DHT22;61859;49.204;8.140;2022-09-21T15:10:30;21.80;44.00
73576;DHT22;61859;49.204;8.140;2022-09-21T15:16:16;21.10;45.60
73576;DHT22;61859;49.204;8.140;2022-09-21T15:18:44;20.90;47.40
73576;DHT22;61859;49.204;8.140;2022-09-21T15:21:24;21.30;46.80
73576;DHT22;61859;49.204;8.140;2022-09-21T15:23:50;21.00;45.80
73576;DHT22;61859;49.204;8.140;2022-09-21T15:26:20;20.70;46.60
73576;DHT22;61859;49.204;8.140;2022-09-21T15:28:54;20.10;47.80
73576;DHT22;61859;49.204;8.140;2022-09-21T15:31:20;19.70;50.00
73576;DHT22;61859;49.204;8.140;2022-09-21T15:33:46;19.40;52.20
73576;DHT22;61859;49.204;8.140;2022-09-21T15:36:20;19.40;51.50
73576;DHT22;61859;49.204;8.140;2022-09-21T15:38:50;19.40;51.50
73576;DHT22;61859;49.204;8.140;2022-09-21T15:41:43;19.60;51.40
73576;DHT22;61859;49.204;8.140;2022-09-21T15:44:14;19.90;51.90
73576;DHT22;61859;49.204;8.140;2022-09-21T15:46:42;20.00;50.30
73576;DHT22;61859;49.204;8.140;2022-09-21T15:49:12;20.20;50.20
73576;DHT22;61859;49.204;8.140;2022-09-21T15:51:41;20.40;50.90
73576;DHT22;61859;49.204;8.140;2022-09-21T15:57:02;21.00;48.30
73576;DHT22;61859;49.204;8.140;2022-09-21T15:59:32;21.40;48.00
73576;DHT22;61859;49.204;8.140;2022-09-21T16:02:00;21.90;45.80
73576;DHT22;61859;49.204;8.140;2022-09-21T16:04:35;22.30;44.10
73576;DHT22;61859;49.204;8.140;2022-09-21T16:07:06;22.60;43.30
73576;DHT22;61859;49.204;8.140;2022-09-21T16:09:44;23.10;42.10
73576;DHT22;61859;49.204;8.140;2022-09-21T16:14:51;23.00;41.20
73576;DHT22;61859;49.204;8.140;2022-09-21T16:17:26;22.50;41.60
73576;DHT22;61859;49.204;8.140;2022-09-21T16:22:41;21.10;43.40
73576;DHT22;61859;49.204;8.140;2022-09-21T16:25:33;20.60;45.10
73576;DHT22;61859;49.204;8.140;2022-09-21T16:28:25;20.00;47.90
73576;DHT22;61859;49.204;8.140;2022-09-21T16:30:52;19.40;48.50
73576;DHT22;61859;49.204;8.140;2022-09-21T16:33:39;19.20;48.70
73576;DHT22;61859;49.204;8.140;2022-09-21T16:38:59;18.60;50.70
73576;DHT22;61859;49.204;8.140;2022-09-21T16:44:04;18.40;51.70
73576;DHT22;61859;49.204;8.140;2022-09-21T16:46:30;18.60;50.90
73576;DHT22;61859;49.204;8.140;2022-09-21T16:48:56;19.10;51.60
73576;DHT22;61859;49.204;8.140;2022-09-21T16:51:25;19.50;50.80
73576;DHT22;61859;49.204;8.140;2022-09-21T16:53:51;20.10;49.90
73576;DHT22;61859;49.204;8.140;2022-09-21T16:56:17;20.50;49.30
73576;DHT22;61859;49.204;8.140;2022-09-21T16:58:43;20.90;47.40
73576;DHT22;61859;49.204;8.140;2022-09-21T17:01:11;21.00;47.20
73576;DHT22;61859;49.204;8.140;2022-09-21T17:03:37;20.90;47.50
73576;DHT22;61859;49.204;8.140;2022-09-21T17:06:10;20.50;47.80
73576;DHT22;61859;49.204;8.140;2022-09-21T17:08:38;20.00;49.30
73576;DHT22;61859;49.204;8.140;2022-09-21T17:11:04;19.30;50.40
73576;DHT22;61859;49.204;8.140;2022-09-21T17:13:29;18.70;52.00
73576;DHT22;61859;49.204;8.140;2022-09-21T17:15:56;18.00;54.20
73576;DHT22;61859;49.204;8.140;2022-09-21T17:18:22;17.40;55.70
73576;DHT22;61859;49.204;8.140;2022-09-21T17:20:48;16.90;56.60
73576;DHT22;61859;49.204;8.140;2022-09-21T17:23:13;16.50;58.20
73576;DHT22;61859;49.204;8.140;2022-09-21T17:25:40;16.20;59.90
73576;DHT22;61859;49.204;8.140;2022-09-21T17:28:14;15.80;60.40
73576;DHT22;61859;49.204;8.140;2022-09-21T17:30:42;15.50;61.50
73576;DHT22;61859;49.204;8.140;2022-09-21T17:33:09;15.20;63.40
73576;DHT22;61859;49.204;8.140;2022-09-21T17:35:37;15.00;64.20
73576;DHT22;61859;49.204;8.140;2022-09-21T17:38:04;14.90;65.00
73576;DHT22;61859;49.204;8.140;2022-09-21T17:40:30;14.70;66.10
73576;DHT22;61859;49.204;8.140;2022-09-21T17:45:48;14.40;67.80
73576;DHT22;61859;49.204;8.140;2022-09-21T17:48:20;14.10;68.40
73576;DHT22;61859;49.204;8.140;2022-09-21T17:50:47;14.00;69.20
73576;DHT22;61859;49.204;8.140;2022-09-21T17:53:13;13.90;69.50
73576;DHT22;61859;49.204;8.140;2022-09-21T17:55:59;13.80;70.00
73576;DHT22;61859;49.204;8.140;2022-09-21T18:01:15;13.50;71.60
73576;DHT22;61859;49.204;8.140;2022-09-21T18:03:43;13.40;72.30
73576;DHT22;61859;49.204;8.140;2022-09-21T18:06:09;13.30;73.10
73576;DHT22;61859;49.204;8.140;2022-09-21T18:08:37;13.20;73.90
73576;DHT22;61859;49.204;8.140;2022-09-21T18:16:44;12.90;75.10
73576;DHT22;61859;49.204;8.140;2022-09-21T18:21:51;12.70;75.60
73576;DHT22;61859;49.204;8.140;2022-09-21T18:24:26;12.70;76.00
73576;DHT22;61859;49.204;8.140;2022-09-21T18:26:52;12.60;77.00
73576;DHT22;61859;49.204;8.140;2022-09-21T18:29:28;12.50;77.00
73576;DHT22;61859;49.204;8.140;2022-09-21T18:34:59;12.40;78.00
73576;DHT22;61859;49.204;8.140;2022-09-21T18:37:56;12.30;78.00
73576;DHT22;61859;49.204;8.140;2022-09-21T18:40:35;12.30;78.40
73576;DHT22;61859;49.204;8.140;2022-09-21T18:43:43;12.10;78.80
73576;DHT22;61859;49.204;8.140;2022-09-21T18:49:01;11.80;79.90
73576;DHT22;61859;49.204;8.140;2022-09-21T18:53:56;11.80;80.50
73576;DHT22;61859;49.204;8.140;2022-09-21T18:56:23;11.70;80.70
73576;DHT22;61859;49.204;8.140;2022-09-21T18:58:49;11.60;81.10
73576;DHT22;61859;49.204;8.140;2022-09-21T19:01:16;11.50;81.60
73576;DHT22;61859;49.204;8.140;2022-09-21T19:03:44;11.50;82.10
73576;DHT22;61859;49.204;8.140;2022-09-21T19:09:13;11.30;82.50
73576;DHT22;61859;49.204;8.140;2022-09-21T19:11:57;11.20;82.60
73576;DHT22;61859;49.204;8.140;2022-09-21T19:20:04;11.00;83.00
73576;DHT22;61859;49.204;8.140;2022-09-21T19:25:28;10.90;83.10
73576;DHT22;61859;49.204;8.140;2022-09-21T19:28:35;10.80;83.30
73576;DHT22;61859;49.204;8.140;2022-09-21T19:31:13;10.80;83.70
73576;DHT22;61859;49.204;8.140;2022-09-21T19:33:39;10.70;83.80